Roebuck, South Carolina
Current Conditions -  °F | °C
As of 1:15 PM on Monday 22 Dec 2014 (Local Time) from KSPA Reporting Station
Haze Haze  
Wind Chill: 35°   Ceiling: 500
Heat Index: 41°   Visibility: 5mi
Dew Point: 41°   Wind: 9mph
Humidity: 100%   Direction: 50°NE
Pressure: 30.04"   Gusts: NA
Location:  34.88°N, 81.97°W
Report Text: KSPA 221815Z AUTO 05008KT 5SM BR OVC005 05/05 A3004 RMK AO2
Loading
Personal Weather Stations






























Interactive Weather Map New forecast layout! Learn more

10-Day Weather Forecast

Advertisements
Track Severe Weather on mobile